»·PEaware :: UPS224 KSBD-KSFO

UPS224 :: KSBD-KSFO

FLIGHT INFORMATION

Flight Status: Arrived
Operator:
United Parcel Service
More flights by this operator :: More flights under this callsign
Pilot: Matteo S. (9898)
Aircraft: Unknown
(B77F)
More flights by this aircraft type
Origin: KSBD San Bernardino Intl
United States
Destination: KSFO San Francisco Intl
United States
More flights between these airports :: More routes between these airports
Route: +PDZ V197 PMD AVE SERFR SERFR2
File this flight plan on PilotEdge
Remarks:
Altitude:
(Current/Filed)
34,000ft
Speed:
(Current/Filed)
450kts
Departed: 24-Feb-16 02:39 PM
Arrived: 24-Feb-16 03:40 PM
Distance/Time
Traveled:
328nm/1:01
Distance/Time
To Go:
Arrived

Flight Plot

Page will automatically refresh every two minutes.

Flight plan parsing failed; only flown route is shown


Map Options




Map Legend


Flown Route
Filed Route
Departure Airport
Arrival Airport
Navaid (VOR, NDB)
Fix

Horizontal Profiles

Position Reports

Time Latitude Longitude Heading Altitude Ground
Speed
24-Feb-16 13:56 34.101856 -117.225260 90 1158ft 0kts
24-Feb-16 13:57 34.101856 -117.225260 90 1158ft 0kts
24-Feb-16 13:58 34.101856 -117.225260 90 1158ft 0kts
24-Feb-16 13:59 34.101856 -117.225260 90 1158ft 0kts
24-Feb-16 14:00 34.101856 -117.225260 90 1158ft 0kts
24-Feb-16 14:01 34.101856 -117.225260 90 1158ft 0kts
24-Feb-16 14:02 34.101856 -117.225260 90 1158ft 0kts
24-Feb-16 14:03 34.101856 -117.225260 90 1158ft 0kts
24-Feb-16 14:04 34.101856 -117.225260 90 1158ft 0kts
24-Feb-16 14:05 34.101856 -117.225260 90 1158ft 0kts
24-Feb-16 14:06 34.101856 -117.225260 90 1158ft 0kts
24-Feb-16 14:07 34.101856 -117.225260 90 1158ft 0kts
24-Feb-16 14:08 34.101856 -117.225260 90 1158ft 0kts
24-Feb-16 14:09 34.101856 -117.225260 90 1158ft 0kts
24-Feb-16 14:10 34.101856 -117.225260 90 1158ft 0kts
24-Feb-16 14:11 34.101856 -117.225260 90 1158ft 0kts
24-Feb-16 14:12 34.101856 -117.225260 90 1158ft 0kts
24-Feb-16 14:13 34.101856 -117.225260 90 1158ft 0kts
24-Feb-16 14:14 34.101856 -117.225260 90 1158ft 0kts
24-Feb-16 14:16 34.101856 -117.225260 90 1158ft 0kts
24-Feb-16 14:17 34.101856 -117.225260 90 1158ft 0kts
24-Feb-16 14:18 34.101856 -117.225260 90 1158ft 0kts
24-Feb-16 14:19 34.101856 -117.225260 90 1158ft 0kts
24-Feb-16 14:20 34.101856 -117.225260 90 1158ft 0kts
24-Feb-16 14:21 34.101856 -117.225260 90 1158ft 0kts
24-Feb-16 14:22 34.101856 -117.225260 90 1158ft 0kts
24-Feb-16 14:23 34.101856 -117.225260 90 1158ft 0kts
24-Feb-16 14:24 34.101856 -117.225260 90 1158ft 0kts
24-Feb-16 14:25 34.101856 -117.225260 90 1158ft 0kts
24-Feb-16 14:26 34.101856 -117.225260 90 1158ft 0kts
24-Feb-16 14:27 34.101845 -117.225126 98 1159ft 1kts
24-Feb-16 14:28 34.101378 -117.223832 134 1161ft 6kts
24-Feb-16 14:29 34.100491 -117.222832 72 1163ft 5kts
24-Feb-16 14:29 34.101021 -117.221052 68 1168ft 7kts
24-Feb-16 14:30 34.100953 -117.219946 154 1172ft 0kts
24-Feb-16 14:31 34.099824 -117.219859 218 1172ft 9kts
24-Feb-16 14:32 34.097660 -117.226984 251 1152ft 125kts
24-Feb-16 14:33 34.068196 -117.280341 226 4036ft 221kts
24-Feb-16 14:34 34.023779 -117.350426 234 4045ft 265kts
24-Feb-16 14:35 33.979797 -117.425156 235 6217ft 289kts
24-Feb-16 14:36 33.934270 -117.505866 251 9023ft 295kts
24-Feb-16 14:37 33.958288 -117.592271 306 9037ft 282kts
24-Feb-16 14:38 34.004674 -117.668391 308 9035ft 280kts
24-Feb-16 14:39 34.053966 -117.747786 307 10819ft 334kts
24-Feb-16 14:40 34.131358 -117.813171 336 13985ft 354kts
24-Feb-16 14:41 34.224301 -117.859830 337 17191ft 371kts
24-Feb-16 14:42 34.321883 -117.908596 336 20994ft 391kts
24-Feb-16 14:43 34.424661 -117.960087 336 24394ft 410kts
24-Feb-16 14:44 34.532313 -118.014169 336 27752ft 429kts
24-Feb-16 14:45 34.638763 -118.083519 316 30691ft 447kts
24-Feb-16 14:46 34.710550 -118.208450 303 33949ft 455kts
24-Feb-16 14:47 34.779018 -118.335531 303 34268ft 450kts
24-Feb-16 14:48 34.847577 -118.462681 303 34266ft 449kts
24-Feb-16 14:49 34.915872 -118.589776 303 34265ft 449kts
24-Feb-16 14:50 34.984070 -118.717144 303 34264ft 449kts
24-Feb-16 14:51 35.052174 -118.844800 303 34248ft 450kts
24-Feb-16 14:52 35.120584 -118.973502 303 34168ft 453kts
24-Feb-16 14:53 35.188882 -119.102395 302 34143ft 454kts
24-Feb-16 14:54 35.257728 -119.231952 302 34147ft 457kts
24-Feb-16 14:55 35.326858 -119.363472 301 34146ft 458kts
24-Feb-16 14:56 35.395660 -119.494863 301 34146ft 458kts
24-Feb-16 14:57 35.464214 -119.626262 301 34145ft 458kts
24-Feb-16 14:58 35.532871 -119.758360 301 34145ft 458kts
24-Feb-16 14:59 35.600775 -119.889506 301 34162ft 454kts
24-Feb-16 15:00 35.660541 -120.025170 291 34172ft 453kts
24-Feb-16 15:01 35.706116 -120.169144 290 34166ft 451kts
24-Feb-16 15:02 35.750515 -120.312765 290 34166ft 447kts
24-Feb-16 15:03 35.794293 -120.455539 290 34165ft 444kts
24-Feb-16 15:04 35.837712 -120.597841 290 34164ft 444kts
24-Feb-16 15:05 35.880885 -120.740071 290 34163ft 444kts
24-Feb-16 15:06 35.924007 -120.882848 290 34162ft 444kts
24-Feb-16 15:07 35.966609 -121.024608 290 33399ft 432kts
24-Feb-16 15:08 36.006761 -121.157863 290 31758ft 397kts
24-Feb-16 15:09 36.045015 -121.285807 289 30214ft 400kts
24-Feb-16 15:10 36.108057 -121.396694 322 28638ft 406kts
24-Feb-16 15:11 36.203070 -121.469754 324 26741ft 396kts
24-Feb-16 15:12 36.294849 -121.541591 324 24930ft 386kts
24-Feb-16 15:13 36.384375 -121.611884 324 23213ft 377kts
24-Feb-16 15:14 36.471899 -121.680793 324 21557ft 368kts
24-Feb-16 15:15 36.556898 -121.747931 324 19931ft 360kts
24-Feb-16 15:17 36.639796 -121.813616 324 18215ft 352kts
24-Feb-16 15:18 36.721348 -121.878379 325 16653ft 344kts
24-Feb-16 15:19 36.811984 -121.913971 345 15122ft 343kts
24-Feb-16 15:20 36.904059 -121.939776 345 13607ft 335kts
24-Feb-16 15:21 36.992839 -121.969229 340 12135ft 328kts
24-Feb-16 15:22 37.079453 -122.003081 341 10686ft 320kts
24-Feb-16 15:23 37.161578 -122.035214 341 9292ft 299kts
24-Feb-16 15:24 37.238101 -122.065217 341 8011ft 277kts
24-Feb-16 15:25 37.308902 -122.093044 342 6849ft 260kts
24-Feb-16 15:25 37.366072 -122.115229 342 6013ft 256kts
24-Feb-16 15:26 37.435113 -122.142291 342 4722ft 264kts
24-Feb-16 15:27 37.501842 -122.163629 346 3465ft 217kts
24-Feb-16 15:28 37.545258 -122.203087 301 2749ft 194kts
24-Feb-16 15:29 37.569170 -122.257295 298 1807ft 154kts
24-Feb-16 15:30 37.587681 -122.301301 299 1034ft 139kts
24-Feb-16 15:31 37.605703 -122.344366 299 308ft 139kts
24-Feb-16 15:32 37.620264 -122.378655 298 38ft 46kts
24-Feb-16 15:33 37.624113 -122.384771 27 36ft 11kts
24-Feb-16 15:34 37.626095 -122.383848 341 32ft 9kts
24-Feb-16 15:35 37.627659 -122.387090 296 29ft 12kts
24-Feb-16 15:36 37.629360 -122.391188 296 27ft 12kts
24-Feb-16 15:37 37.631878 -122.391590 44 24ft 9kts
24-Feb-16 15:38 37.634094 -122.390361 65 24ft 11kts
24-Feb-16 15:39 37.635949 -122.388500 330 20ft 7kts
24-Feb-16 15:40 37.636610 -122.388028 57 19ft 0kts
24-Feb-16 15:41 37.636610 -122.388028 57 19ft 0kts
24-Feb-16 15:42 37.636610 -122.388028 57 19ft 0kts
24-Feb-16 15:43 37.636610 -122.388028 57 19ft 0kts
24-Feb-16 15:44 37.636610 -122.388028 57 19ft 0kts

Navigation Log

Ident Type
Flight plan parsing failed, navigation log unavailable